Time;durP1;ratioP1;P1;durP2;ratioP2;P2;SDS_P1;SDS_P2;PMS_P1;PMS_P2;Temp;Humidity;BMP_temperature;BMP_pressure;BME280_temperature;BME280_humidity;BME280_pressure;Samples;Min_cycle;Max_cycle;Signal;HPM_P1;HPM_P2
2021/07/30 00:01:21;;;;;;;2.22;1.35;;;;;;;19.78;49.42;100215.19;4900875;28;126944;-66
2021/07/30 00:03:48;;;;;;;3.65;1.60;;;;;;;19.76;49.03;100208.44;4903765;28;98183;-75
2021/07/30 00:06:15;;;;;;;4.03;1.77;;;;;;;19.71;49.09;100212.19;4902993;28;97776;-75
2021/07/30 00:08:41;;;;;;;5.65;1.67;;;;;;;19.68;48.89;100212.03;4904909;28;98155;-66
2021/07/30 00:11:07;;;;;;;5.05;1.70;;;;;;;19.63;48.92;100207.59;4917236;28;127327;-74
2021/07/30 00:13:33;;;;;;;3.72;1.60;;;;;;;19.59;49.10;100218.34;4885451;28;127864;-66
2021/07/30 00:15:59;;;;;;;5.43;1.83;;;;;;;19.53;49.06;100207.94;4885012;28;126618;-66
2021/07/30 00:18:25;;;;;;;5.22;1.58;;;;;;;19.49;48.90;100207.00;4869710;28;120826;-75
2021/07/30 00:20:51;;;;;;;4.95;1.55;;;;;;;19.44;48.98;100207.22;4901301;28;128636;-75
2021/07/30 00:23:17;;;;;;;5.15;1.70;;;;;;;19.38;49.20;100210.16;4903710;28;127192;-66
2021/07/30 00:25:43;;;;;;;3.47;1.77;;;;;;;19.32;49.71;100213.41;4900887;28;127276;-75
2021/07/30 00:28:09;;;;;;;3.60;1.63;;;;;;;19.25;50.08;100213.13;4903761;28;117562;-75
2021/07/30 00:30:35;;;;;;;4.00;1.70;;;;;;;19.19;50.14;100217.19;4902826;28;127167;-75
2021/07/30 00:33:02;;;;;;;4.50;1.77;;;;;;;19.12;50.46;100215.78;4901963;28;115725;-66
2021/07/30 00:35:28;;;;;;;6.93;2.10;;;;;;;19.03;50.53;100212.31;4901355;28;98017;-75
2021/07/30 00:37:55;;;;;;;4.97;1.90;;;;;;;18.95;50.65;100221.34;4908421;28;97884;-66
2021/07/30 00:40:21;;;;;;;5.50;2.03;;;;;;;18.89;50.97;100222.66;4903641;28;98839;-66
2021/07/30 00:42:51;;;;;;;2.72;1.70;;;;;;;18.77;50.99;100211.63;4903991;28;98396;-65
2021/07/30 00:45:18;;;;;;;5.10;1.92;;;;;;;18.61;51.40;100217.59;4902363;28;98204;-66
2021/07/30 00:47:44;;;;;;;4.18;2.20;;;;;;;18.43;51.87;100212.53;4902872;28;98072;-65
2021/07/30 00:50:11;;;;;;;3.40;2.08;;;;;;;18.31;52.26;100224.09;4900643;28;120415;-74
2021/07/30 00:52:37;;;;;;;4.93;2.03;;;;;;;18.16;52.48;100206.34;4901116;28;128170;-66
2021/07/30 00:55:03;;;;;;;5.40;2.45;;;;;;;18.07;52.94;100213.72;4900515;28;127377;-75
2021/07/30 00:57:29;;;;;;;4.82;2.05;;;;;;;18.02;53.39;100216.63;4904121;28;101301;-65
2021/07/30 00:59:55;;;;;;;5.13;2.28;;;;;;;18.01;53.40;100212.31;4901367;28;127738;-66
2021/07/30 01:02:22;;;;;;;4.25;2.28;;;;;;;17.98;53.67;100216.47;4902622;28;126516;-74
2021/07/30 01:04:48;;;;;;;4.60;2.28;;;;;;;17.99;54.11;100214.53;4884219;28;116445;-74
2021/07/30 01:07:14;;;;;;;5.28;2.53;;;;;;;17.99;54.13;100212.63;4901138;28;118297;-74
2021/07/30 01:09:40;;;;;;;4.63;2.38;;;;;;;17.97;54.05;100208.63;4917050;28;126155;-74
2021/07/30 01:12:09;;;;;;;4.72;2.40;;;;;;;17.89;53.71;100212.97;4910819;28;98624;-74
2021/07/30 01:14:35;;;;;;;5.13;2.30;;;;;;;17.84;54.17;100210.38;4914092;28;98201;-73
2021/07/30 01:17:01;;;;;;;4.90;2.40;;;;;;;17.84;54.14;100207.66;4882823;28;110291;-65
2021/07/30 01:19:27;;;;;;;4.72;2.50;;;;;;;17.79;54.06;100219.53;4889220;28;127872;-65
2021/07/30 01:21:54;;;;;;;4.50;2.78;;;;;;;17.78;54.20;100215.22;4934800;28;98312;-65
2021/07/30 01:24:21;;;;;;;5.88;2.75;;;;;;;17.73;54.23;100209.91;4918138;28;98525;-73
2021/07/30 01:26:48;;;;;;;6.45;3.28;;;;;;;17.67;54.20;100208.44;4911991;28;97900;-73
2021/07/30 01:29:14;;;;;;;4.88;2.85;;;;;;;17.62;54.21;100217.59;4902745;28;98061;-65
2021/07/30 01:31:40;;;;;;;5.25;3.15;;;;;;;17.55;54.26;100214.53;4902480;28;128601;-73
2021/07/30 01:34:06;;;;;;;6.07;2.78;;;;;;;17.53;54.40;100213.28;4902226;28;105828;-73
2021/07/30 01:36:32;;;;;;;6.30;2.70;;;;;;;17.50;54.57;100216.63;4902303;28;117085;-65
2021/07/30 01:38:58;;;;;;;3.95;2.47;;;;;;;17.46;54.33;100215.66;4901461;28;127102;-73
2021/07/30 01:41:25;;;;;;;5.45;2.53;;;;;;;17.42;54.69;100216.28;4901906;28;98735;-65
2021/07/30 01:43:51;;;;;;;4.82;2.50;;;;;;;17.43;54.48;100219.81;4901271;28;97994;-65
2021/07/30 01:46:17;;;;;;;3.83;2.45;;;;;;;17.42;54.77;100219.00;4902311;28;117147;-65
2021/07/30 01:48:43;;;;;;;4.78;2.50;;;;;;;17.40;54.61;100221.25;4883157;28;126439;-73
2021/07/30 01:51:09;;;;;;;5.28;2.47;;;;;;;17.38;55.06;100218.06;4900451;28;98486;-66
2021/07/30 01:53:35;;;;;;;4.78;2.42;;;;;;;17.39;55.45;100216.13;4902729;28;97927;-65
2021/07/30 01:56:04;;;;;;;5.85;2.30;;;;;;;17.39;55.50;100216.91;4899407;28;117684;-73
2021/07/30 01:58:34;;;;;;;4.15;2.58;;;;;;;17.39;55.24;100218.84;4902683;28;98521;-65
2021/07/30 02:01:01;;;;;;;6.65;2.42;;;;;;;17.42;55.92;100219.00;4901240;28;128222;-73
2021/07/30 02:03:27;;;;;;;5.07;2.42;;;;;;;17.43;55.44;100217.88;4885234;28;98070;-73
2021/07/30 02:05:53;;;;;;;4.88;2.55;;;;;;;17.46;55.74;100218.38;4901023;28;118184;-65
2021/07/30 02:08:19;;;;;;;4.38;2.30;;;;;;;17.47;55.47;100219.97;4901214;28;119929;-65
2021/07/30 02:10:45;;;;;;;3.95;2.30;;;;;;;17.43;55.95;100219.81;4915333;28;125708;-65
2021/07/30 02:15:56;;;;;;;6.03;2.70;;;;;;;17.38;55.47;100225.41;4902305;28;97650;-73
2021/07/30 02:18:22;;;;;;;3.72;2.80;;;;;;;17.35;55.75;100217.88;4901677;28;128048;-74
2021/07/30 02:20:48;;;;;;;4.47;2.80;;;;;;;17.34;56.07;100222.53;4899036;28;128301;-65
2021/07/30 02:23:14;;;;;;;4.30;2.42;;;;;;;17.34;55.91;100224.47;4901297;28;127535;-65
2021/07/30 02:25:40;;;;;;;4.97;2.45;;;;;;;17.32;55.84;100224.75;4884770;28;98064;-73
2021/07/30 02:28:06;;;;;;;6.55;2.70;;;;;;;17.32;55.85;100224.75;4901375;28;128550;-74
2021/07/30 02:30:32;;;;;;;6.47;2.90;;;;;;;17.32;55.62;100224.75;4901173;28;98419;-73
2021/07/30 02:32:58;;;;;;;6.03;3.10;;;;;;;17.31;55.64;100225.88;4899573;28;127545;-65
2021/07/30 02:35:24;;;;;;;5.35;2.80;;;;;;;17.31;55.82;100223.16;4900754;28;118531;-65
2021/07/30 02:37:50;;;;;;;3.80;2.60;;;;;;;17.29;56.14;100227.31;4902396;28;98403;-65
2021/07/30 02:40:17;;;;;;;4.70;2.88;;;;;;;17.27;56.07;100227.63;4901670;28;100631;-65
2021/07/30 02:42:43;;;;;;;5.05;2.58;;;;;;;17.22;56.34;100235.16;4902173;28;111604;-65
2021/07/30 02:45:09;;;;;;;4.63;2.53;;;;;;;17.20;56.60;100226.50;4900853;28;117854;-65
2021/07/30 02:47:35;;;;;;;4.97;2.30;;;;;;;17.21;56.76;100239.00;4901351;28;118148;-73
2021/07/30 02:50:03;;;;;;;4.70;2.72;;;;;;;17.18;56.36;100235.00;4899804;28;124342;-73
2021/07/30 02:52:30;;;;;;;6.55;3.00;;;;;;;17.15;56.47;100236.44;4901343;28;112680;-65
2021/07/30 02:54:56;;;;;;;4.30;2.80;;;;;;;17.13;56.38;100235.13;4901736;28;97826;-73
2021/07/30 02:57:22;;;;;;;4.65;3.00;;;;;;;17.08;56.77;100233.34;4882773;28;126851;-65
2021/07/30 02:59:48;;;;;;;3.92;2.53;;;;;;;17.04;56.51;100229.66;4900581;28;128951;-65
2021/07/30 03:02:14;;;;;;;4.05;3.03;;;;;;;17.01;56.42;100240.38;4900194;28;127698;-73
2021/07/30 03:04:40;;;;;;;7.13;3.40;;;;;;;16.93;56.62;100233.78;4901485;28;117568;-74
2021/07/30 03:07:06;;;;;;;6.30;3.90;;;;;;;16.88;56.61;100240.19;4899519;28;98270;-73
2021/07/30 03:09:32;;;;;;;4.15;3.22;;;;;;;16.87;56.60;100237.78;4900133;28;98559;-65
2021/07/30 03:11:58;;;;;;;4.43;3.20;;;;;;;16.84;56.35;100224.78;4901092;28;127959;-73
2021/07/30 03:14:24;;;;;;;6.28;3.38;;;;;;;16.83;56.50;100232.16;4900939;28;117865;-65
2021/07/30 03:16:50;;;;;;;5.50;3.15;;;;;;;16.80;56.89;100230.06;4882054;28;128303;-65
2021/07/30 03:19:16;;;;;;;5.85;3.47;;;;;;;16.78;56.75;100229.59;4883401;28;108337;-65
2021/07/30 03:21:42;;;;;;;5.13;3.05;;;;;;;16.74;56.90;100235.94;4900554;28;127370;-73
2021/07/30 03:24:08;;;;;;;4.63;2.80;;;;;;;16.70;56.88;100235.75;4900120;28;97812;-65
2021/07/30 03:26:36;;;;;;;3.75;2.58;;;;;;;16.67;56.69;100230.94;4882496;28;126413;-73
2021/07/30 03:29:05;;;;;;;4.80;3.17;;;;;;;16.65;56.76;100225.00;4901163;28;98647;-65
2021/07/30 03:31:31;;;;;;;4.88;3.00;;;;;;;16.64;57.21;100220.69;4900459;28;115641;-65
2021/07/30 03:33:57;;;;;;;4.40;2.65;;;;;;;16.64;57.24;100223.41;4899069;28;119455;-65
2021/07/30 03:36:23;;;;;;;3.33;2.80;;;;;;;16.65;57.14;100231.25;4899947;28;128758;-73
2021/07/30 03:38:49;;;;;;;4.22;2.83;;;;;;;16.67;57.08;100217.34;4901366;28;103847;-65
2021/07/30 03:41:15;;;;;;;5.10;2.78;;;;;;;16.69;57.01;100229.50;4901348;28;124491;-65
2021/07/30 03:43:41;;;;;;;4.88;2.92;;;;;;;16.72;56.91;100230.81;4904853;28;103606;-73
2021/07/30 03:46:07;;;;;;;4.78;3.10;;;;;;;16.73;57.15;100227.00;4902963;28;126322;-65
2021/07/30 03:48:34;;;;;;;5.07;2.97;;;;;;;16.73;57.15;100226.16;4904495;28;98414;-66
2021/07/30 03:51:01;;;;;;;4.85;3.00;;;;;;;16.74;57.37;100220.44;4904155;28;98051;-74
2021/07/30 03:53:27;;;;;;;6.28;3.30;;;;;;;16.75;57.19;100221.25;4887112;28;97882;-65
2021/07/30 03:55:53;;;;;;;5.45;3.10;;;;;;;16.75;56.94;100227.50;4885278;28;127439;-74
2021/07/30 03:58:19;;;;;;;4.00;2.90;;;;;;;16.77;57.29;100232.63;4902964;28;126406;-74
2021/07/30 04:00:45;;;;;;;5.15;3.10;;;;;;;16.78;57.23;100234.22;4890032;28;115600;-66
2021/07/30 04:03:11;;;;;;;4.65;3.08;;;;;;;16.78;57.10;100235.03;4904151;28;117374;-66
2021/07/30 04:05:37;;;;;;;3.78;2.90;;;;;;;16.79;57.04;100244.81;4926197;28;126505;-74
2021/07/30 04:08:04;;;;;;;3.15;2.80;;;;;;;16.80;57.21;100240.16;4898278;28;128815;-66
2021/07/30 04:10:30;;;;;;;5.18;3.13;;;;;;;16.80;56.86;100237.44;4899311;28;97928;-66
2021/07/30 04:12:56;;;;;;;5.28;3.30;;;;;;;16.80;57.31;100238.22;4903776;28;98013;-74
2021/07/30 04:15:22;;;;;;;5.18;2.85;;;;;;;16.81;57.62;100239.03;4904084;28;97959;-74
2021/07/30 04:17:49;;;;;;;5.70;2.80;;;;;;;16.82;57.23;100236.00;4884677;28;128341;-66
2021/07/30 04:20:15;;;;;;;4.38;3.25;;;;;;;16.87;57.16;100241.31;4902653;28;98024;-66
2021/07/30 04:22:41;;;;;;;4.32;2.95;;;;;;;16.91;57.34;100241.47;4904325;28;97842;-66
2021/07/30 04:25:08;;;;;;;5.57;3.03;;;;;;;16.96;57.21;100251.41;4904288;28;98536;-66
2021/07/30 04:27:34;;;;;;;4.03;3.33;;;;;;;16.95;57.10;100258.00;4907144;28;113328;-74
2021/07/30 04:30:00;;;;;;;3.55;2.85;;;;;;;16.99;56.67;100253.53;4902174;28;127680;-74
2021/07/30 04:32:26;;;;;;;5.88;3.10;;;;;;;17.04;56.46;100251.44;4904448;28;97668;-66
2021/07/30 04:34:52;;;;;;;4.43;3.15;;;;;;;17.06;56.48;100251.94;4903195;28;98448;-66
2021/07/30 04:37:18;;;;;;;4.50;3.08;;;;;;;17.06;56.66;100251.16;4901562;28;100251;-66
2021/07/30 04:39:44;;;;;;;5.35;3.30;;;;;;;17.02;56.66;100247.44;4903905;28;98011;-74
2021/07/30 04:42:10;;;;;;;4.32;2.88;;;;;;;17.00;56.88;100247.75;4903173;28;117650;-66
2021/07/30 04:44:36;;;;;;;5.75;2.85;;;;;;;17.03;56.84;100251.78;4903451;28;116460;-66
2021/07/30 04:47:03;;;;;;;4.32;2.78;;;;;;;17.08;57.01;100244.25;4902667;28;126259;-74
2021/07/30 04:49:29;;;;;;;5.60;3.08;;;;;;;17.17;57.15;100256.00;4917854;28;100527;-74
2021/07/30 04:51:55;;;;;;;5.22;2.88;;;;;;;17.25;57.39;100246.25;4902356;28;117956;-66
2021/07/30 04:54:21;;;;;;;5.35;3.13;;;;;;;17.37;56.90;100251.03;4902661;28;124755;-66
2021/07/30 04:56:47;;;;;;;3.45;2.47;;;;;;;17.47;56.66;100253.47;4897653;28;126834;-73
2021/07/30 04:59:13;;;;;;;4.03;2.90;;;;;;;17.57;56.34;100250.44;4881078;28;128301;-69
2021/07/30 05:01:42;;;;;;;3.70;2.70;;;;;;;17.65;56.17;100244.22;4899210;28;118906;-74
2021/07/30 05:04:09;;;;;;;4.68;2.80;;;;;;;17.77;55.80;100249.06;4898443;28;98512;-74
2021/07/30 05:06:35;;;;;;;3.70;2.60;;;;;;;17.84;55.65;100248.53;4898707;28;98254;-66
2021/07/30 05:09:02;;;;;;;4.75;2.85;;;;;;;17.93;55.41;100254.03;4900394;28;98288;-74
2021/07/30 05:11:28;;;;;;;4.68;2.70;;;;;;;18.06;55.46;100251.13;4899607;28;97923;-65
2021/07/30 05:13:54;;;;;;;5.35;2.80;;;;;;;18.19;54.89;100254.78;4899175;28;128076;-75
2021/07/30 05:16:20;;;;;;;4.28;2.90;;;;;;;18.35;54.69;100252.34;4899863;28;97920;-66
2021/07/30 05:18:46;;;;;;;3.00;2.70;;;;;;;18.49;54.12;100247.50;4899705;28;98041;-66
2021/07/30 05:21:12;;;;;;;3.78;2.70;;;;;;;18.63;54.48;100239.94;4878167;28;117925;-74
2021/07/30 05:23:38;;;;;;;4.72;2.92;;;;;;;18.79;53.99;100244.88;4897946;28;127660;-66
2021/07/30 05:26:04;;;;;;;7.68;3.20;;;;;;;18.92;53.79;100246.56;4895819;28;115765;-66
2021/07/30 05:28:31;;;;;;;3.58;2.80;;;;;;;19.09;53.32;100245.69;4899709;28;101268;-75
2021/07/30 05:31:00;;;;;;;3.90;2.67;;;;;;;19.24;53.20;100247.06;4900047;28;98031;-66
2021/07/30 05:33:27;;;;;;;3.05;2.55;;;;;;;19.40;53.21;100242.59;4897948;28;120437;-74
2021/07/30 05:35:53;;;;;;;3.97;2.58;;;;;;;19.60;52.38;100249.22;4862455;28;97914;-66
2021/07/30 05:38:19;;;;;;;4.35;2.60;;;;;;;19.79;52.31;100254.25;4897363;28;126888;-66
2021/07/30 05:40:45;;;;;;;2.80;2.60;;;;;;;19.97;51.74;100250.25;4899377;28;97798;-74
2021/07/30 05:43:11;;;;;;;4.78;2.72;;;;;;;20.14;51.62;100245.75;4898405;28;98365;-74
2021/07/30 05:45:38;;;;;;;3.28;2.22;;;;;;;20.34;51.17;100242.97;4898774;28;127700;-74
2021/07/30 05:48:04;;;;;;;5.30;2.63;;;;;;;20.53;50.80;100245.22;4896379;28;127805;-74
2021/07/30 05:50:30;;;;;;;4.07;2.70;;;;;;;20.75;50.66;100248.66;4898839;28;98067;-66
2021/07/30 05:52:56;;;;;;;4.03;2.50;;;;;;;20.95;49.67;100245.03;4898690;28;120214;-74
2021/07/30 05:55:22;;;;;;;3.58;2.15;;;;;;;21.18;49.10;100250.84;4895172;28;126248;-74
2021/07/30 05:57:48;;;;;;;3.38;2.30;;;;;;;21.41;48.38;100242.94;4896373;28;125660;-74
2021/07/30 06:00:14;;;;;;;4.72;2.30;;;;;;;21.65;47.73;100244.03;4894286;28;117700;-66
2021/07/30 06:02:40;;;;;;;3.17;1.95;;;;;;;21.86;46.96;100244.69;4859108;28;117557;-74
2021/07/30 06:05:07;;;;;;;3.83;2.00;;;;;;;22.06;46.47;100245.63;4879340;28;128267;-66
2021/07/30 06:07:33;;;;;;;3.35;2.03;;;;;;;22.28;46.01;100245.09;4896295;28;103150;-66
2021/07/30 06:09:59;;;;;;;3.47;2.28;;;;;;;22.61;45.64;100243.97;4880166;28;100540;-74
2021/07/30 06:12:25;;;;;;;3.80;1.95;;;;;;;23.73;43.31;100254.47;4888583;28;128144;-66
2021/07/30 06:14:51;;;;;;;2.80;1.58;;;;;;;25.09;40.98;100247.91;4865051;28;98902;-76
2021/07/30 06:17:18;;;;;;;3.83;1.60;;;;;;;25.59;39.78;100251.44;4897114;28;127414;-66
2021/07/30 06:19:44;;;;;;;2.17;1.27;;;;;;;26.51;38.77;100245.41;4899202;28;98136;-74
2021/07/30 06:22:10;;;;;;;3.03;1.40;;;;;;;27.28;37.21;100257.53;4896409;28;99555;-66
2021/07/30 06:24:38;;;;;;;3.13;1.50;;;;;;;28.11;35.58;100252.00;4881082;28;99173;-66
2021/07/30 06:27:04;;;;;;;3.33;1.42;;;;;;;28.75;35.08;100247.75;4898492;28;98463;-66
2021/07/30 06:29:30;;;;;;;3.05;1.27;;;;;;;29.34;34.08;100243.34;4881460;28;97999;-73
2021/07/30 06:31:56;;;;;;;2.88;1.40;;;;;;;31.03;31.72;100238.44;4898490;28;108273;-73
2021/07/30 06:34:22;;;;;;;2.20;1.40;;;;;;;32.00;29.86;100248.53;4897709;28;98706;-74
2021/07/30 06:36:53;;;;;;;5.18;1.33;;;;;;;32.22;29.28;100241.44;4897153;28;126724;-66
2021/07/30 06:39:19;;;;;;;3.67;1.40;;;;;;;32.11;29.41;100246.41;4896555;28;110609;-74
2021/07/30 06:41:46;;;;;;;2.83;1.60;;;;;;;32.14;29.38;100244.75;4897894;28;98204;-66
2021/07/30 06:44:12;;;;;;;3.67;1.40;;;;;;;32.41;28.82;100242.78;4898148;28;99332;-66
2021/07/30 06:46:38;;;;;;;2.53;1.60;;;;;;;32.67;28.67;100229.25;4898521;28;98213;-74
2021/07/30 06:49:05;;;;;;;3.08;1.50;;;;;;;33.01;28.29;100233.84;4897769;28;117553;-66
2021/07/30 06:51:31;;;;;;;4.05;1.85;;;;;;;33.35;27.52;100222.44;4896592;28;98261;-66
2021/07/30 06:53:57;;;;;;;4.80;2.35;;;;;;;34.32;26.16;100232.41;4897712;28;117788;-66
2021/07/30 06:56:23;;;;;;;7.57;1.58;;;;;;;34.18;25.55;100225.91;4896907;28;127732;-66
2021/07/30 06:58:49;;;;;;;2.72;1.30;;;;;;;34.35;25.59;100226.72;4897841;28;117966;-74
2021/07/30 07:01:15;;;;;;;3.83;1.35;;;;;;;34.39;25.45;100224.63;4897374;28;98884;-74
2021/07/30 07:03:41;;;;;;;2.80;1.00;;;;;;;34.08;26.60;100215.78;4896614;28;98860;-66
2021/07/30 07:06:08;;;;;;;3.42;1.30;;;;;;;33.80;25.88;100205.19;4897532;28;127706;-66
2021/07/30 07:08:34;;;;;;;3.13;1.10;;;;;;;33.56;25.77;100204.50;4895910;28;106704;-74
2021/07/30 07:11:04;;;;;;;2.85;0.90;;;;;;;33.32;26.39;100192.59;4896415;28;127193;-66
2021/07/30 07:13:30;;;;;;;4.15;1.00;;;;;;;33.27;26.83;100196.69;4896391;28;98426;-66
2021/07/30 07:15:56;;;;;;;3.00;0.88;;;;;;;33.18;26.29;100200.03;4896584;28;98063;-66
2021/07/30 07:18:22;;;;;;;2.67;1.00;;;;;;;33.20;26.59;100194.81;4901309;28;118033;-74
2021/07/30 07:20:48;;;;;;;3.70;1.08;;;;;;;33.28;26.32;100195.44;4900416;28;127357;-74
2021/07/30 07:23:15;;;;;;;4.35;1.00;;;;;;;33.43;26.10;100198.75;4901364;28;111595;-74
2021/07/30 07:25:41;;;;;;;5.65;0.95;;;;;;;33.54;26.12;100193.75;4901230;28;98097;-74
2021/07/30 07:28:07;;;;;;;2.42;0.88;;;;;;;33.66;25.77;100186.72;4900560;28;117597;-74
2021/07/30 07:30:33;;;;;;;2.08;0.90;;;;;;;33.82;25.68;100188.78;4900172;28;127014;-66
2021/07/30 07:32:59;;;;;;;3.35;1.27;;;;;;;33.94;25.71;100186.09;4898858;28;98297;-66
2021/07/30 07:35:25;;;;;;;3.05;0.90;;;;;;;34.05;25.36;100183.09;4899539;28;128092;-74
2021/07/30 07:37:51;;;;;;;2.47;1.40;;;;;;;34.17;25.70;100179.59;4901169;28;97915;-75
2021/07/30 07:40:17;;;;;;;3.50;1.00;;;;;;;34.20;25.17;100177.97;4901030;28;98126;-66
2021/07/30 07:42:43;;;;;;;2.92;0.80;;;;;;;34.30;24.90;100182.50;4898574;28;127484;-66
2021/07/30 07:45:10;;;;;;;3.05;0.73;;;;;;;34.45;25.12;100182.94;4900773;28;98143;-75
2021/07/30 07:47:36;;;;;;;2.33;0.90;;;;;;;34.61;24.44;100173.75;4899757;28;107738;-75
2021/07/30 07:50:03;;;;;;;2.45;0.80;;;;;;;34.76;24.41;100174.19;4899723;28;127861;-75
2021/07/30 07:52:29;;;;;;;3.13;0.65;;;;;;;34.99;24.01;100176.78;4899572;28;98284;-75
2021/07/30 07:54:55;;;;;;;2.00;0.75;;;;;;;35.16;23.93;100180.31;4899263;28;127618;-66
2021/07/30 07:57:21;;;;;;;1.60;0.80;;;;;;;35.38;23.14;100174.91;4900967;28;117761;-66
2021/07/30 07:59:47;;;;;;;2.60;0.80;;;;;;;35.65;22.41;100164.09;4893548;28;98288;-74
2021/07/30 08:02:13;;;;;;;3.28;0.73;;;;;;;35.97;22.82;100162.31;4899493;28;99640;-66
2021/07/30 08:04:39;;;;;;;2.88;0.98;;;;;;;36.38;22.48;100163.41;4899070;28;129339;-75
2021/07/30 08:07:10;;;;;;;3.70;0.80;;;;;;;36.85;22.03;100157.03;4900021;28;117899;-75
2021/07/30 08:09:36;;;;;;;;;;;;;;;37.74;22.12;100153.75;4900481;28;98361;-76
2021/07/30 08:12:03;;;;;;;2.60;0.90;;;;;;;37.76;21.97;100161.72;4899538;28;127441;-66
2021/07/30 08:14:30;;;;;;;2.10;0.82;;;;;;;38.13;20.79;100153.44;4899550;28;98119;-66
2021/07/30 08:16:56;;;;;;;1.73;0.85;;;;;;;38.33;20.09;100150.22;4900161;28;98158;-74
2021/07/30 08:19:22;;;;;;;2.65;1.00;;;;;;;38.74;19.95;100146.03;4899324;28;127571;-66
2021/07/30 08:21:48;;;;;;;2.00;0.80;;;;;;;38.97;19.98;100150.28;4900715;28;98602;-66
2021/07/30 08:24:14;;;;;;;2.08;0.98;;;;;;;39.50;19.87;100147.88;4899244;28;127648;-66
2021/07/30 08:26:41;;;;;;;3.92;0.90;;;;;;;40.10;19.03;100142.63;4899028;28;117885;-74
2021/07/30 08:29:07;;;;;;;2.47;0.77;;;;;;;40.74;18.16;100136.56;4899990;28;99217;-74
2021/07/30 08:31:33;;;;;;;4.40;0.98;;;;;;;41.29;17.44;100149.41;4899276;28;127250;-73
2021/07/30 08:33:59;;;;;;;1.85;0.50;;;;;;;41.87;17.26;100145.00;4900023;28;98328;-74
2021/07/30 08:36:25;;;;;;;1.50;0.57;;;;;;;42.38;16.23;100130.28;4900042;28;97946;-74
2021/07/30 08:38:51;;;;;;;1.52;0.70;;;;;;;42.72;16.40;100136.38;4897844;28;108046;-73
2021/07/30 08:41:21;;;;;;;1.67;0.70;;;;;;;43.14;16.28;100132.19;4878890;28;128445;-73
2021/07/30 08:43:53;;;;;;;1.90;0.80;;;;;;;43.55;15.87;100123.56;4900780;28;98169;-73
2021/07/30 08:46:24;;;;;;;5.53;0.70;;;;;;;43.61;15.67;100130.03;4900318;28;98153;-74
2021/07/30 08:48:50;;;;;;;1.70;0.80;;;;;;;43.61;14.89;100113.00;4900119;28;98548;-65
2021/07/30 08:51:18;;;;;;;2.83;0.70;;;;;;;43.80;15.13;100119.06;4897263;28;119426;-66
2021/07/30 08:53:47;;;;;;;5.35;0.90;;;;;;;44.33;14.76;100117.56;4882374;28;113576;-74
2021/07/30 08:56:14;;;;;;;2.00;0.65;;;;;;;44.76;14.29;100106.88;4899737;28;97915;-66
2021/07/30 08:58:40;;;;;;;7.80;7.07;;;;;;;44.97;14.17;100112.34;4899758;28;98544;-66
2021/07/30 09:01:06;;;;;;;2.55;1.00;;;;;;;45.23;14.10;100110.06;4897668;28;127469;-66
2021/07/30 09:03:39;;;;;;;2.00;0.70;;;;;;;45.56;14.14;100100.00;4898518;28;119696;-66
2021/07/30 09:06:19;;;;;;;2.35;0.70;;;;;;;45.87;14.06;100104.59;4897894;28;98048;-67
2021/07/30 09:08:54;;;;;;;1.67;0.70;;;;;;;45.34;14.03;100109.28;4898395;28;98488;-76
2021/07/30 09:11:40;;;;;;;2.20;0.70;;;;;;;45.82;14.22;100105.38;4882231;28;98907;-67
2021/07/30 09:14:08;;;;;;;2.50;0.70;;;;;;;45.49;13.65;100094.81;4899392;28;98063;-67
2021/07/30 09:16:53;;;;;;;2.25;0.73;;;;;;;45.54;14.01;100094.03;4897967;28;105066;-68
2021/07/30 09:19:20;;;;;;;1.85;0.60;;;;;;;43.94;15.29;100072.75;4899595;28;100627;-67
2021/07/30 09:21:46;;;;;;;1.98;0.70;;;;;;;42.17;16.44;100084.22;4899494;28;108878;-76
2021/07/30 09:24:17;;;;;;;1.75;0.50;;;;;;;42.38;15.51;100073.69;4899303;28;115344;-67
2021/07/30 09:26:48;;;;;;;3.15;0.60;;;;;;;41.60;16.71;100079.03;4882439;28;98151;-76
2021/07/30 09:29:17;;;;;;;2.45;0.63;;;;;;;40.39;17.29;100077.84;4899400;28;98718;-66
2021/07/30 09:31:47;;;;;;;2.95;0.60;;;;;;;38.93;18.90;100070.81;4899622;28;117730;-75
2021/07/30 09:34:13;;;;;;;2.00;0.60;;;;;;;39.16;17.96;100069.38;4899675;28;98125;-65
2021/07/30 09:37:00;;;;;;;4.10;0.80;;;;;;;38.99;19.21;100064.09;4899301;28;98382;-67
2021/07/30 09:39:38;;;;;;;5.53;0.90;;;;;;;39.99;17.00;100067.00;4866584;28;110553;-69
2021/07/30 09:42:09;;;;;;;2.85;0.70;;;;;;;40.12;17.63;100069.59;4896711;28;99303;-75
2021/07/30 09:44:59;;;;;;;3.55;0.82;;;;;;;40.54;17.35;100069.44;4899387;28;98034;-76
2021/07/30 09:47:35;;;;;;;2.53;0.80;;;;;;;39.74;17.78;100066.22;4900170;28;98118;-67
2021/07/30 09:50:09;;;;;;;2.03;0.60;;;;;;;39.31;17.92;100075.16;4898635;28;99224;-76
2021/07/30 09:52:40;;;;;;;1.23;0.70;;;;;;;38.42;18.62;100063.78;4897348;28;98986;-67
2021/07/30 09:55:08;;;;;;;3.00;0.73;;;;;;;38.88;18.50;100057.38;4898525;28;97860;-67
2021/07/30 09:57:37;;;;;;;1.65;0.77;;;;;;;39.90;17.69;100069.88;4897616;28;97873;-67
2021/07/30 10:00:08;;;;;;;3.53;0.90;;;;;;;40.01;17.86;100056.03;4898976;28;98846;-76
2021/07/30 10:02:40;;;;;;;2.42;0.73;;;;;;;40.30;17.50;100058.19;4898698;28;99013;-76
2021/07/30 10:05:07;;;;;;;2.55;0.70;;;;;;;38.97;19.03;100058.13;4896233;28;119411;-67
2021/07/30 10:07:36;;;;;;;1.90;0.80;;;;;;;39.81;18.45;100047.34;4898627;28;98040;-76
2021/07/30 10:10:13;;;;;;;5.30;0.80;;;;;;;41.51;16.64;100047.28;4896941;28;98520;-76
2021/07/30 10:12:46;;;;;;;2.75;0.90;;;;;;;42.28;16.23;100057.34;4898284;28;98615;-67
2021/07/30 10:15:12;;;;;;;4.28;0.80;;;;;;;39.89;17.62;100054.19;4897322;28;98105;-76
2021/07/30 10:17:44;;;;;;;2.65;0.60;;;;;;;38.17;18.45;100039.53;4899088;28;100615;-79
2021/07/30 10:20:11;;;;;;;2.22;0.65;;;;;;;37.12;19.85;100038.53;4897955;28;98852;-79
2021/07/30 10:23:04;;;;;;;2.30;0.70;;;;;;;38.15;18.82;100041.25;4896387;28;98792;-69
2021/07/30 10:25:38;;;;;;;2.75;0.68;;;;;;;36.33;20.58;100041.38;4891563;28;99352;-70
2021/07/30 10:28:25;;;;;;;1.70;0.80;;;;;;;35.45;21.12;100040.25;4896259;28;100125;-80
2021/07/30 10:30:58;;;;;;;2.08;0.85;;;;;;;35.96;20.89;100045.03;4880899;28;98332;-79
2021/07/30 10:33:33;;;;;;;2.10;0.90;;;;;;;35.31;21.67;100032.28;4898737;28;98596;-79
2021/07/30 10:36:06;;;;;;;2.03;0.77;;;;;;;37.06;20.19;100040.34;4898048;28;98182;-78
2021/07/30 10:38:33;;;;;;;2.25;0.65;;;;;;;38.59;18.46;100038.16;4896798;28;98134;-79
2021/07/30 10:40:59;;;;;;;1.63;0.65;;;;;;;39.60;18.36;100026.63;4897042;28;106926;-78
2021/07/30 10:43:33;;;;;;;1.70;0.65;;;;;;;40.50;17.36;100032.13;4898665;28;98349;-78
2021/07/30 10:46:12;;;;;;;2.85;0.88;;;;;;;41.25;16.85;100024.50;4896260;28;98195;-78
2021/07/30 10:48:39;;;;;;;2.60;0.70;;;;;;;41.57;16.57;100020.63;4897513;28;97882;-69
2021/07/30 10:51:35;;;;;;;2.15;0.68;;;;;;;41.29;17.52;100011.72;4899347;28;98371;-69
2021/07/30 10:54:04;;;;;;;1.45;0.57;;;;;;;41.73;16.43;100019.31;4892682;28;98277;-69
2021/07/30 10:56:30;;;;;;;2.97;0.70;;;;;;;41.92;16.09;100017.00;4900191;28;97996;-69
2021/07/30 10:58:57;;;;;;;1.70;0.77;;;;;;;42.14;16.16;100020.13;4902461;28;98522;-78
2021/07/30 11:01:26;;;;;;;3.55;0.60;;;;;;;40.02;17.57;100014.50;4901463;28;98264;-69
2021/07/30 11:03:52;;;;;;;2.23;0.70;;;;;;;39.39;18.14;100001.06;4900059;28;98914;-79
2021/07/30 11:06:20;;;;;;;2.75;0.85;;;;;;;40.59;17.18;100005.88;4901531;28;97957;-70
2021/07/30 11:09:06;;;;;;;1.65;0.60;;;;;;;41.02;17.41;99997.94;4900626;28;110106;-69
2021/07/30 11:11:55;;;;;;;1.95;0.73;;;;;;;40.62;17.89;99994.41;4902041;28;98694;-78
2021/07/30 11:14:35;;;;;;;1.63;0.68;;;;;;;41.87;17.16;99992.28;4900558;28;111550;-78
2021/07/30 11:17:06;;;;;;;1.65;0.60;;;;;;;41.49;16.94;99994.03;4899036;28;99027;-79
2021/07/30 11:19:47;;;;;;;3.47;0.60;;;;;;;41.11;17.27;99983.69;4900515;28;99695;-78
2021/07/30 11:22:20;;;;;;;1.77;0.50;;;;;;;39.31;18.58;99982.16;4900111;28;99072;-78
2021/07/30 11:24:51;;;;;;;2.30;0.80;;;;;;;40.21;18.16;99980.03;4899039;28;98825;-69
2021/07/30 11:27:19;;;;;;;2.78;0.60;;;;;;;40.60;17.34;99980.00;4900918;28;97886;-78